sensor_id;sensor_type;location;lat;lon;timestamp;P1;durP1;ratioP1;P2;durP2;ratioP2
26656;SDS011;14279;50.010;8.260;2023-04-24T00:00:15;4.03;;;1.40;;
26656;SDS011;14279;50.010;8.260;2023-04-24T00:02:41;1.93;;;1.40;;
26656;SDS011;14279;50.010;8.260;2023-04-24T00:05:11;4.93;;;1.37;;
26656;SDS011;14279;50.010;8.260;2023-04-24T00:07:37;2.60;;;1.03;;
26656;SDS011;14279;50.010;8.260;2023-04-24T00:10:02;1.37;;;1.20;;
26656;SDS011;14279;50.010;8.260;2023-04-24T00:12:27;3.43;;;1.70;;
26656;SDS011;14279;50.010;8.260;2023-04-24T00:14:52;1.20;;;1.10;;
26656;SDS011;14279;50.010;8.260;2023-04-24T00:17:18;11.37;;;1.37;;
26656;SDS011;14279;50.010;8.260;2023-04-24T00:19:46;3.33;;;1.27;;
26656;SDS011;14279;50.010;8.260;2023-04-24T00:22:12;3.23;;;1.43;;
26656;SDS011;14279;50.010;8.260;2023-04-24T00:24:38;2.23;;;1.30;;
26656;SDS011;14279;50.010;8.260;2023-04-24T00:27:04;2.00;;;1.70;;
26656;SDS011;14279;50.010;8.260;2023-04-24T00:29:29;6.13;;;1.57;;
26656;SDS011;14279;50.010;8.260;2023-04-24T00:31:54;1.43;;;1.20;;
26656;SDS011;14279;50.010;8.260;2023-04-24T00:34:20;1.40;;;1.00;;
26656;SDS011;14279;50.010;8.260;2023-04-24T00:36:45;1.17;;;1.00;;
26656;SDS011;14279;50.010;8.260;2023-04-24T00:39:11;3.33;;;1.00;;
26656;SDS011;14279;50.010;8.260;2023-04-24T00:41:36;3.67;;;1.17;;
26656;SDS011;14279;50.010;8.260;2023-04-24T00:44:01;1.47;;;1.10;;
26656;SDS011;14279;50.010;8.260;2023-04-24T00:46:27;2.63;;;1.20;;
26656;SDS011;14279;50.010;8.260;2023-04-24T00:48:53;3.63;;;1.30;;
26656;SDS011;14279;50.010;8.260;2023-04-24T00:51:18;2.43;;;1.10;;
26656;SDS011;14279;50.010;8.260;2023-04-24T00:53:44;11.17;;;1.40;;
26656;SDS011;14279;50.010;8.260;2023-04-24T00:56:10;2.00;;;1.10;;
26656;SDS011;14279;50.010;8.260;2023-04-24T00:58:35;4.67;;;1.70;;
26656;SDS011;14279;50.010;8.260;2023-04-24T01:01:01;1.70;;;1.20;;
26656;SDS011;14279;50.010;8.260;2023-04-24T01:03:28;2.10;;;1.13;;
26656;SDS011;14279;50.010;8.260;2023-04-24T01:05:57;3.30;;;1.30;;
26656;SDS011;14279;50.010;8.260;2023-04-24T01:08:23;1.57;;;1.00;;
26656;SDS011;14279;50.010;8.260;2023-04-24T01:10:50;2.43;;;1.10;;
26656;SDS011;14279;50.010;8.260;2023-04-24T01:13:17;2.50;;;1.27;;
26656;SDS011;14279;50.010;8.260;2023-04-24T01:15:43;4.30;;;1.20;;
26656;SDS011;14279;50.010;8.260;2023-04-24T01:18:09;5.77;;;1.60;;
26656;SDS011;14279;50.010;8.260;2023-04-24T01:20:34;4.10;;;1.40;;
26656;SDS011;14279;50.010;8.260;2023-04-24T01:23:01;1.83;;;1.17;;
26656;SDS011;14279;50.010;8.260;2023-04-24T01:25:27;10.23;;;1.10;;
26656;SDS011;14279;50.010;8.260;2023-04-24T01:27:53;1.23;;;0.90;;
26656;SDS011;14279;50.010;8.260;2023-04-24T01:30:18;1.53;;;1.00;;
26656;SDS011;14279;50.010;8.260;2023-04-24T01:32:44;2.47;;;1.40;;
26656;SDS011;14279;50.010;8.260;2023-04-24T01:35:09;2.97;;;1.23;;
26656;SDS011;14279;50.010;8.260;2023-04-24T01:37:35;4.53;;;1.57;;
26656;SDS011;14279;50.010;8.260;2023-04-24T01:40:02;7.10;;;1.27;;
26656;SDS011;14279;50.010;8.260;2023-04-24T01:42:28;2.87;;;1.33;;
26656;SDS011;14279;50.010;8.260;2023-04-24T01:44:54;4.07;;;1.50;;
26656;SDS011;14279;50.010;8.260;2023-04-24T01:47:19;4.87;;;1.27;;
26656;SDS011;14279;50.010;8.260;2023-04-24T01:49:45;6.70;;;1.00;;
26656;SDS011;14279;50.010;8.260;2023-04-24T01:52:10;4.50;;;1.13;;
26656;SDS011;14279;50.010;8.260;2023-04-24T01:54:36;2.40;;;1.40;;
26656;SDS011;14279;50.010;8.260;2023-04-24T01:57:01;2.90;;;1.20;;
26656;SDS011;14279;50.010;8.260;2023-04-24T01:59:27;6.50;;;1.23;;
26656;SDS011;14279;50.010;8.260;2023-04-24T02:01:53;2.40;;;1.10;;
26656;SDS011;14279;50.010;8.260;2023-04-24T02:04:19;3.43;;;1.33;;
26656;SDS011;14279;50.010;8.260;2023-04-24T02:06:44;4.00;;;1.33;;
26656;SDS011;14279;50.010;8.260;2023-04-24T02:09:09;3.50;;;1.50;;
26656;SDS011;14279;50.010;8.260;2023-04-24T02:11:35;2.53;;;1.40;;
26656;SDS011;14279;50.010;8.260;2023-04-24T02:14:01;4.37;;;1.17;;
26656;SDS011;14279;50.010;8.260;2023-04-24T02:16:27;5.60;;;1.30;;
26656;SDS011;14279;50.010;8.260;2023-04-24T02:18:55;1.63;;;1.00;;
26656;SDS011;14279;50.010;8.260;2023-04-24T02:21:20;3.03;;;1.37;;
26656;SDS011;14279;50.010;8.260;2023-04-24T02:23:45;3.37;;;1.17;;
26656;SDS011;14279;50.010;8.260;2023-04-24T02:26:10;7.47;;;1.20;;
26656;SDS011;14279;50.010;8.260;2023-04-24T02:28:36;2.43;;;1.20;;
26656;SDS011;14279;50.010;8.260;2023-04-24T02:31:01;2.30;;;0.80;;
26656;SDS011;14279;50.010;8.260;2023-04-24T02:33:26;2.10;;;1.30;;
26656;SDS011;14279;50.010;8.260;2023-04-24T02:35:52;1.60;;;1.23;;
26656;SDS011;14279;50.010;8.260;2023-04-24T02:38:17;2.40;;;1.17;;
26656;SDS011;14279;50.010;8.260;2023-04-24T02:40:42;2.33;;;0.90;;
26656;SDS011;14279;50.010;8.260;2023-04-24T02:43:07;1.20;;;1.10;;
26656;SDS011;14279;50.010;8.260;2023-04-24T02:45:33;2.60;;;1.17;;
26656;SDS011;14279;50.010;8.260;2023-04-24T02:47:59;0.90;;;0.90;;
26656;SDS011;14279;50.010;8.260;2023-04-24T02:50:25;1.47;;;1.20;;
26656;SDS011;14279;50.010;8.260;2023-04-24T02:52:50;3.83;;;1.10;;
26656;SDS011;14279;50.010;8.260;2023-04-24T02:55:15;3.13;;;1.10;;
26656;SDS011;14279;50.010;8.260;2023-04-24T02:57:40;0.80;;;0.80;;
26656;SDS011;14279;50.010;8.260;2023-04-24T03:00:06;2.20;;;1.13;;
26656;SDS011;14279;50.010;8.260;2023-04-24T03:02:32;1.67;;;1.47;;
26656;SDS011;14279;50.010;8.260;2023-04-24T03:04:57;1.90;;;1.10;;
26656;SDS011;14279;50.010;8.260;2023-04-24T03:07:22;1.23;;;1.00;;
26656;SDS011;14279;50.010;8.260;2023-04-24T03:09:48;5.83;;;1.40;;
26656;SDS011;14279;50.010;8.260;2023-04-24T03:12:14;3.60;;;1.27;;
26656;SDS011;14279;50.010;8.260;2023-04-24T03:14:39;2.80;;;1.30;;
26656;SDS011;14279;50.010;8.260;2023-04-24T03:17:04;2.63;;;0.97;;
26656;SDS011;14279;50.010;8.260;2023-04-24T03:19:30;2.63;;;1.50;;
26656;SDS011;14279;50.010;8.260;2023-04-24T03:21:55;4.17;;;1.00;;
26656;SDS011;14279;50.010;8.260;2023-04-24T03:24:20;1.17;;;1.00;;
26656;SDS011;14279;50.010;8.260;2023-04-24T03:26:45;2.57;;;0.97;;
26656;SDS011;14279;50.010;8.260;2023-04-24T03:29:11;1.10;;;1.00;;
26656;SDS011;14279;50.010;8.260;2023-04-24T03:31:36;3.33;;;1.17;;
26656;SDS011;14279;50.010;8.260;2023-04-24T03:34:01;3.13;;;1.00;;
26656;SDS011;14279;50.010;8.260;2023-04-24T03:36:26;4.87;;;1.27;;
26656;SDS011;14279;50.010;8.260;2023-04-24T03:38:52;2.80;;;0.97;;
26656;SDS011;14279;50.010;8.260;2023-04-24T03:41:17;3.50;;;1.10;;
26656;SDS011;14279;50.010;8.260;2023-04-24T03:43:43;4.27;;;1.10;;
26656;SDS011;14279;50.010;8.260;2023-04-24T03:46:09;1.37;;;1.10;;
26656;SDS011;14279;50.010;8.260;2023-04-24T03:48:35;2.83;;;1.23;;
26656;SDS011;14279;50.010;8.260;2023-04-24T03:51:00;1.27;;;1.07;;
26656;SDS011;14279;50.010;8.260;2023-04-24T03:53:25;1.57;;;1.03;;
26656;SDS011;14279;50.010;8.260;2023-04-24T03:55:51;1.00;;;1.00;;
26656;SDS011;14279;50.010;8.260;2023-04-24T03:58:17;1.40;;;1.30;;
26656;SDS011;14279;50.010;8.260;2023-04-24T04:00:42;1.40;;;1.30;;
26656;SDS011;14279;50.010;8.260;2023-04-24T04:03:10;1.63;;;1.53;;
26656;SDS011;14279;50.010;8.260;2023-04-24T04:05:36;1.70;;;1.60;;
26656;SDS011;14279;50.010;8.260;2023-04-24T04:08:01;1.03;;;1.03;;
26656;SDS011;14279;50.010;8.260;2023-04-24T04:10:26;2.93;;;1.40;;
26656;SDS011;14279;50.010;8.260;2023-04-24T04:12:52;2.90;;;1.60;;
26656;SDS011;14279;50.010;8.260;2023-04-24T04:15:17;1.10;;;1.10;;
26656;SDS011;14279;50.010;8.260;2023-04-24T04:17:42;2.40;;;1.87;;
26656;SDS011;14279;50.010;8.260;2023-04-24T04:20:07;1.03;;;0.93;;
26656;SDS011;14279;50.010;8.260;2023-04-24T04:22:35;4.73;;;1.43;;
26656;SDS011;14279;50.010;8.260;2023-04-24T04:25:01;1.80;;;1.40;;
26656;SDS011;14279;50.010;8.260;2023-04-24T04:27:26;2.70;;;1.67;;
26656;SDS011;14279;50.010;8.260;2023-04-24T04:29:53;1.83;;;1.63;;
26656;SDS011;14279;50.010;8.260;2023-04-24T04:32:18;2.83;;;1.83;;
26656;SDS011;14279;50.010;8.260;2023-04-24T04:34:43;1.77;;;1.67;;
26656;SDS011;14279;50.010;8.260;2023-04-24T04:37:10;2.63;;;2.10;;
26656;SDS011;14279;50.010;8.260;2023-04-24T04:39:37;2.80;;;1.90;;
26656;SDS011;14279;50.010;8.260;2023-04-24T04:42:02;2.30;;;1.80;;
26656;SDS011;14279;50.010;8.260;2023-04-24T04:44:28;1.80;;;1.70;;
26656;SDS011;14279;50.010;8.260;2023-04-24T04:46:55;6.37;;;1.87;;
26656;SDS011;14279;50.010;8.260;2023-04-24T04:49:29;7.80;;;1.97;;
26656;SDS011;14279;50.010;8.260;2023-04-24T04:52:34;1.97;;;1.77;;
26656;SDS011;14279;50.010;8.260;2023-04-24T04:54:59;1.80;;;1.70;;
26656;SDS011;14279;50.010;8.260;2023-04-24T04:57:27;2.27;;;2.07;;
26656;SDS011;14279;50.010;8.260;2023-04-24T04:59:53;2.83;;;2.00;;
26656;SDS011;14279;50.010;8.260;2023-04-24T05:02:18;2.40;;;2.20;;
26656;SDS011;14279;50.010;8.260;2023-04-24T05:04:46;4.37;;;2.53;;
26656;SDS011;14279;50.010;8.260;2023-04-24T05:07:11;4.23;;;2.40;;
26656;SDS011;14279;50.010;8.260;2023-04-24T05:09:36;3.00;;;2.33;;
26656;SDS011;14279;50.010;8.260;2023-04-24T05:12:02;2.83;;;2.50;;
26656;SDS011;14279;50.010;8.260;2023-04-24T05:14:27;3.90;;;2.40;;
26656;SDS011;14279;50.010;8.260;2023-04-24T05:16:52;4.03;;;2.77;;
26656;SDS011;14279;50.010;8.260;2023-04-24T05:19:18;2.90;;;2.63;;
26656;SDS011;14279;50.010;8.260;2023-04-24T05:21:43;3.40;;;2.60;;
26656;SDS011;14279;50.010;8.260;2023-04-24T05:24:08;2.70;;;2.20;;
26656;SDS011;14279;50.010;8.260;2023-04-24T05:26:33;3.40;;;3.00;;
26656;SDS011;14279;50.010;8.260;2023-04-24T05:28:58;5.77;;;2.70;;
26656;SDS011;14279;50.010;8.260;2023-04-24T05:31:24;4.47;;;2.77;;
26656;SDS011;14279;50.010;8.260;2023-04-24T05:33:50;2.27;;;2.13;;
26656;SDS011;14279;50.010;8.260;2023-04-24T05:36:15;2.43;;;2.30;;
26656;SDS011;14279;50.010;8.260;2023-04-24T05:38:40;3.00;;;2.70;;
26656;SDS011;14279;50.010;8.260;2023-04-24T05:41:05;3.53;;;2.30;;
26656;SDS011;14279;50.010;8.260;2023-04-24T05:43:31;3.33;;;2.30;;
26656;SDS011;14279;50.010;8.260;2023-04-24T05:45:56;4.83;;;2.70;;
26656;SDS011;14279;50.010;8.260;2023-04-24T05:48:21;3.33;;;2.90;;
26656;SDS011;14279;50.010;8.260;2023-04-24T05:50:49;3.13;;;2.83;;
26656;SDS011;14279;50.010;8.260;2023-04-24T05:53:17;3.27;;;2.57;;
26656;SDS011;14279;50.010;8.260;2023-04-24T05:55:42;3.63;;;2.93;;
26656;SDS011;14279;50.010;8.260;2023-04-24T05:58:07;2.37;;;2.17;;
26656;SDS011;14279;50.010;8.260;2023-04-24T06:00:32;3.70;;;2.70;;
26656;SDS011;14279;50.010;8.260;2023-04-24T06:02:59;3.80;;;2.70;;
26656;SDS011;14279;50.010;8.260;2023-04-24T06:05:25;3.20;;;2.90;;
26656;SDS011;14279;50.010;8.260;2023-04-24T06:07:50;3.80;;;2.80;;
26656;SDS011;14279;50.010;8.260;2023-04-24T06:10:16;3.40;;;2.93;;
26656;SDS011;14279;50.010;8.260;2023-04-24T06:12:41;3.60;;;2.63;;
26656;SDS011;14279;50.010;8.260;2023-04-24T06:15:07;4.73;;;2.80;;
26656;SDS011;14279;50.010;8.260;2023-04-24T06:17:32;4.83;;;3.20;;
26656;SDS011;14279;50.010;8.260;2023-04-24T06:19:58;2.87;;;2.67;;
26656;SDS011;14279;50.010;8.260;2023-04-24T06:22:23;3.27;;;2.90;;
26656;SDS011;14279;50.010;8.260;2023-04-24T06:24:48;3.40;;;2.70;;
26656;SDS011;14279;50.010;8.260;2023-04-24T06:27:14;2.57;;;2.37;;
26656;SDS011;14279;50.010;8.260;2023-04-24T06:29:39;5.93;;;2.77;;
26656;SDS011;14279;50.010;8.260;2023-04-24T06:32:04;5.20;;;2.80;;
26656;SDS011;14279;50.010;8.260;2023-04-24T06:34:29;3.07;;;2.77;;
26656;SDS011;14279;50.010;8.260;2023-04-24T06:36:55;3.37;;;2.73;;
26656;SDS011;14279;50.010;8.260;2023-04-24T06:39:21;3.47;;;2.80;;
26656;SDS011;14279;50.010;8.260;2023-04-24T06:41:46;3.90;;;2.93;;
26656;SDS011;14279;50.010;8.260;2023-04-24T06:44:11;5.73;;;3.10;;
26656;SDS011;14279;50.010;8.260;2023-04-24T06:46:37;4.13;;;3.30;;
26656;SDS011;14279;50.010;8.260;2023-04-24T06:49:02;3.00;;;2.80;;
26656;SDS011;14279;50.010;8.260;2023-04-24T06:51:27;3.50;;;3.20;;
26656;SDS011;14279;50.010;8.260;2023-04-24T06:53:53;4.53;;;3.10;;
26656;SDS011;14279;50.010;8.260;2023-04-24T06:56:20;3.63;;;3.13;;
26656;SDS011;14279;50.010;8.260;2023-04-24T06:58:46;2.80;;;2.60;;
26656;SDS011;14279;50.010;8.260;2023-04-24T07:01:11;2.80;;;2.33;;
26656;SDS011;14279;50.010;8.260;2023-04-24T07:03:37;2.77;;;2.43;;
26656;SDS011;14279;50.010;8.260;2023-04-24T07:06:02;2.10;;;2.00;;
26656;SDS011;14279;50.010;8.260;2023-04-24T07:08:30;6.83;;;2.90;;
26656;SDS011;14279;50.010;8.260;2023-04-24T07:11:02;4.37;;;2.67;;
26656;SDS011;14279;50.010;8.260;2023-04-24T07:13:27;3.57;;;2.30;;
26656;SDS011;14279;50.010;8.260;2023-04-24T07:15:53;2.53;;;2.33;;
26656;SDS011;14279;50.010;8.260;2023-04-24T07:18:20;3.87;;;2.10;;
26656;SDS011;14279;50.010;8.260;2023-04-24T07:20:46;4.50;;;2.30;;
26656;SDS011;14279;50.010;8.260;2023-04-24T07:23:11;9.23;;;3.03;;
26656;SDS011;14279;50.010;8.260;2023-04-24T07:25:39;2.67;;;2.40;;
26656;SDS011;14279;50.010;8.260;2023-04-24T07:28:04;5.53;;;2.27;;
26656;SDS011;14279;50.010;8.260;2023-04-24T07:30:32;4.73;;;2.57;;
26656;SDS011;14279;50.010;8.260;2023-04-24T07:33:00;5.20;;;2.63;;
26656;SDS011;14279;50.010;8.260;2023-04-24T07:35:25;3.33;;;3.03;;
26656;SDS011;14279;50.010;8.260;2023-04-24T07:37:52;4.93;;;2.47;;
26656;SDS011;14279;50.010;8.260;2023-04-24T07:40:18;2.77;;;2.57;;
26656;SDS011;14279;50.010;8.260;2023-04-24T07:42:43;2.70;;;2.50;;
26656;SDS011;14279;50.010;8.260;2023-04-24T07:45:09;2.33;;;2.13;;
26656;SDS011;14279;50.010;8.260;2023-04-24T07:47:34;2.70;;;2.50;;
26656;SDS011;14279;50.010;8.260;2023-04-24T07:50:01;3.00;;;2.43;;
26656;SDS011;14279;50.010;8.260;2023-04-24T07:52:29;10.53;;;2.67;;
26656;SDS011;14279;50.010;8.260;2023-04-24T07:54:55;4.47;;;2.83;;
26656;SDS011;14279;50.010;8.260;2023-04-24T07:57:25;2.70;;;2.50;;
26656;SDS011;14279;50.010;8.260;2023-04-24T07:59:50;3.30;;;3.00;;
26656;SDS011;14279;50.010;8.260;2023-04-24T08:02:16;6.30;;;2.53;;
26656;SDS011;14279;50.010;8.260;2023-04-24T08:04:41;2.53;;;2.33;;
26656;SDS011;14279;50.010;8.260;2023-04-24T08:07:07;7.10;;;3.30;;
26656;SDS011;14279;50.010;8.260;2023-04-24T08:09:33;4.90;;;2.73;;
26656;SDS011;14279;50.010;8.260;2023-04-24T08:11:58;4.60;;;2.67;;
26656;SDS011;14279;50.010;8.260;2023-04-24T08:14:26;3.53;;;2.50;;
26656;SDS011;14279;50.010;8.260;2023-04-24T08:16:53;4.60;;;2.50;;
26656;SDS011;14279;50.010;8.260;2023-04-24T08:19:22;3.73;;;2.60;;
26656;SDS011;14279;50.010;8.260;2023-04-24T08:21:47;2.40;;;2.20;;
26656;SDS011;14279;50.010;8.260;2023-04-24T08:24:13;2.67;;;2.43;;
26656;SDS011;14279;50.010;8.260;2023-04-24T08:26:38;4.40;;;2.90;;
26656;SDS011;14279;50.010;8.260;2023-04-24T08:29:04;3.30;;;2.80;;
26656;SDS011;14279;50.010;8.260;2023-04-24T08:31:37;3.50;;;2.40;;
26656;SDS011;14279;50.010;8.260;2023-04-24T08:34:03;3.83;;;2.60;;
26656;SDS011;14279;50.010;8.260;2023-04-24T08:36:28;3.00;;;2.70;;
26656;SDS011;14279;50.010;8.260;2023-04-24T08:38:53;2.80;;;2.60;;
26656;SDS011;14279;50.010;8.260;2023-04-24T08:41:18;5.63;;;2.60;;
26656;SDS011;14279;50.010;8.260;2023-04-24T08:43:45;4.13;;;2.57;;
26656;SDS011;14279;50.010;8.260;2023-04-24T08:46:11;2.87;;;2.40;;
26656;SDS011;14279;50.010;8.260;2023-04-24T08:48:38;5.20;;;1.97;;
26656;SDS011;14279;50.010;8.260;2023-04-24T08:51:04;3.87;;;2.07;;
26656;SDS011;14279;50.010;8.260;2023-04-24T08:53:35;4.20;;;2.67;;
26656;SDS011;14279;50.010;8.260;2023-04-24T08:56:11;3.30;;;2.50;;
26656;SDS011;14279;50.010;8.260;2023-04-24T08:58:38;2.80;;;2.40;;
26656;SDS011;14279;50.010;8.260;2023-04-24T09:01:03;3.27;;;2.23;;
26656;SDS011;14279;50.010;8.260;2023-04-24T09:03:32;2.27;;;2.07;;
26656;SDS011;14279;50.010;8.260;2023-04-24T09:05:58;4.07;;;2.70;;
26656;SDS011;14279;50.010;8.260;2023-04-24T09:08:24;3.33;;;2.60;;
26656;SDS011;14279;50.010;8.260;2023-04-24T09:10:51;2.53;;;2.33;;
26656;SDS011;14279;50.010;8.260;2023-04-24T09:13:23;2.90;;;2.40;;
26656;SDS011;14279;50.010;8.260;2023-04-24T09:15:49;2.30;;;2.20;;
26656;SDS011;14279;50.010;8.260;2023-04-24T09:18:25;2.90;;;2.37;;
26656;SDS011;14279;50.010;8.260;2023-04-24T09:21:07;8.90;;;2.10;;
26656;SDS011;14279;50.010;8.260;2023-04-24T09:23:41;2.70;;;2.50;;
26656;SDS011;14279;50.010;8.260;2023-04-24T09:26:06;5.70;;;1.97;;
26656;SDS011;14279;50.010;8.260;2023-04-24T09:28:56;5.23;;;2.37;;
26656;SDS011;14279;50.010;8.260;2023-04-24T09:31:23;2.73;;;1.80;;
26656;SDS011;14279;50.010;8.260;2023-04-24T09:34:02;2.50;;;1.90;;
26656;SDS011;14279;50.010;8.260;2023-04-24T09:36:38;4.00;;;2.13;;
26656;SDS011;14279;50.010;8.260;2023-04-24T09:39:06;1.90;;;1.80;;
26656;SDS011;14279;50.010;8.260;2023-04-24T09:41:47;2.60;;;2.17;;
26656;SDS011;14279;50.010;8.260;2023-04-24T09:44:26;2.20;;;2.00;;
26656;SDS011;14279;50.010;8.260;2023-04-24T09:46:55;2.33;;;2.13;;
26656;SDS011;14279;50.010;8.260;2023-04-24T09:49:23;2.30;;;2.10;;
26656;SDS011;14279;50.010;8.260;2023-04-24T09:51:49;2.07;;;1.83;;
26656;SDS011;14279;50.010;8.260;2023-04-24T09:54:18;1.80;;;1.70;;
26656;SDS011;14279;50.010;8.260;2023-04-24T09:56:55;2.53;;;1.60;;
26656;SDS011;14279;50.010;8.260;2023-04-24T09:59:23;2.00;;;1.80;;
26656;SDS011;14279;50.010;8.260;2023-04-24T10:01:48;2.47;;;1.80;;
26656;SDS011;14279;50.010;8.260;2023-04-24T10:04:19;5.07;;;2.00;;
26656;SDS011;14279;50.010;8.260;2023-04-24T10:06:47;6.33;;;1.87;;
26656;SDS011;14279;50.010;8.260;2023-04-24T10:09:20;1.70;;;1.60;;
26656;SDS011;14279;50.010;8.260;2023-04-24T10:11:47;2.20;;;1.83;;
26656;SDS011;14279;50.010;8.260;2023-04-24T10:14:14;3.23;;;1.70;;
26656;SDS011;14279;50.010;8.260;2023-04-24T10:16:41;3.43;;;1.87;;
26656;SDS011;14279;50.010;8.260;2023-04-24T10:19:07;5.23;;;1.80;;
26656;SDS011;14279;50.010;8.260;2023-04-24T10:21:33;3.63;;;2.10;;
26656;SDS011;14279;50.010;8.260;2023-04-24T10:24:01;2.00;;;1.90;;
26656;SDS011;14279;50.010;8.260;2023-04-24T10:26:28;2.43;;;2.07;;
26656;SDS011;14279;50.010;8.260;2023-04-24T10:28:54;2.47;;;2.20;;
26656;SDS011;14279;50.010;8.260;2023-04-24T10:31:23;2.50;;;2.30;;
26656;SDS011;14279;50.010;8.260;2023-04-24T10:33:48;2.47;;;2.23;;
26656;SDS011;14279;50.010;8.260;2023-04-24T10:36:16;3.63;;;2.93;;
26656;SDS011;14279;50.010;8.260;2023-04-24T10:38:42;2.40;;;2.20;;
26656;SDS011;14279;50.010;8.260;2023-04-24T10:41:10;9.13;;;2.33;;
26656;SDS011;14279;50.010;8.260;2023-04-24T10:43:41;2.50;;;2.30;;
26656;SDS011;14279;50.010;8.260;2023-04-24T10:46:06;2.77;;;2.50;;
26656;SDS011;14279;50.010;8.260;2023-04-24T10:48:33;2.30;;;2.10;;
26656;SDS011;14279;50.010;8.260;2023-04-24T10:50:58;2.63;;;2.43;;
26656;SDS011;14279;50.010;8.260;2023-04-24T10:53:26;2.10;;;1.90;;
26656;SDS011;14279;50.010;8.260;2023-04-24T10:58:23;2.20;;;1.77;;
26656;SDS011;14279;50.010;8.260;2023-04-24T11:00:59;1.70;;;1.60;;
26656;SDS011;14279;50.010;8.260;2023-04-24T11:03:31;4.87;;;1.63;;
26656;SDS011;14279;50.010;8.260;2023-04-24T11:08:28;1.10;;;1.10;;
26656;SDS011;14279;50.010;8.260;2023-04-24T11:11:02;0.97;;;0.97;;
26656;SDS011;14279;50.010;8.260;2023-04-24T11:21:42;2.27;;;2.07;;
26656;SDS011;14279;50.010;8.260;2023-04-24T11:26:55;1.10;;;1.10;;
26656;SDS011;14279;50.010;8.260;2023-04-24T11:29:24;2.80;;;1.40;;
26656;SDS011;14279;50.010;8.260;2023-04-24T11:34:50;1.27;;;0.93;;
26656;SDS011;14279;50.010;8.260;2023-04-24T11:37:17;0.80;;;0.80;;
26656;SDS011;14279;50.010;8.260;2023-04-24T11:39:42;1.30;;;1.20;;
26656;SDS011;14279;50.010;8.260;2023-04-24T11:42:08;1.70;;;1.60;;
26656;SDS011;14279;50.010;8.260;2023-04-24T11:44:34;2.47;;;1.73;;
26656;SDS011;14279;50.010;8.260;2023-04-24T11:47:02;4.50;;;1.97;;
26656;SDS011;14279;50.010;8.260;2023-04-24T11:49:28;3.07;;;1.87;;
26656;SDS011;14279;50.010;8.260;2023-04-24T11:51:56;3.50;;;2.17;;
26656;SDS011;14279;50.010;8.260;2023-04-24T11:54:21;2.53;;;2.00;;
26656;SDS011;14279;50.010;8.260;2023-04-24T11:56:47;3.60;;;2.20;;
26656;SDS011;14279;50.010;8.260;2023-04-24T11:59:13;2.93;;;2.30;;
26656;SDS011;14279;50.010;8.260;2023-04-24T12:01:48;4.63;;;2.23;;
26656;SDS011;14279;50.010;8.260;2023-04-24T12:04:14;7.60;;;3.10;;
26656;SDS011;14279;50.010;8.260;2023-04-24T12:07:00;2.83;;;2.63;;
26656;SDS011;14279;50.010;8.260;2023-04-24T12:09:28;4.03;;;2.60;;
26656;SDS011;14279;50.010;8.260;2023-04-24T12:11:54;5.70;;;2.87;;
26656;SDS011;14279;50.010;8.260;2023-04-24T12:14:21;3.53;;;2.50;;
26656;SDS011;14279;50.010;8.260;2023-04-24T12:16:48;4.70;;;2.63;;
26656;SDS011;14279;50.010;8.260;2023-04-24T12:19:17;3.03;;;2.47;;
26656;SDS011;14279;50.010;8.260;2023-04-24T12:21:45;9.63;;;3.00;;
26656;SDS011;14279;50.010;8.260;2023-04-24T12:24:24;4.73;;;2.60;;
26656;SDS011;14279;50.010;8.260;2023-04-24T12:26:55;3.33;;;2.80;;
26656;SDS011;14279;50.010;8.260;2023-04-24T12:29:21;4.50;;;3.03;;
26656;SDS011;14279;50.010;8.260;2023-04-24T12:31:46;4.13;;;2.43;;
26656;SDS011;14279;50.010;8.260;2023-04-24T12:34:22;10.60;;;2.83;;
26656;SDS011;14279;50.010;8.260;2023-04-24T12:36:49;3.30;;;2.47;;
26656;SDS011;14279;50.010;8.260;2023-04-24T12:39:15;3.23;;;2.50;;
26656;SDS011;14279;50.010;8.260;2023-04-24T12:41:54;3.70;;;2.47;;
26656;SDS011;14279;50.010;8.260;2023-04-24T12:44:28;2.50;;;2.30;;
26656;SDS011;14279;50.010;8.260;2023-04-24T12:46:56;3.50;;;2.30;;
26656;SDS011;14279;50.010;8.260;2023-04-24T12:52:20;5.13;;;2.20;;
26656;SDS011;14279;50.010;8.260;2023-04-24T12:54:45;5.70;;;3.00;;
26656;SDS011;14279;50.010;8.260;2023-04-24T12:57:11;3.93;;;2.43;;
26656;SDS011;14279;50.010;8.260;2023-04-24T12:59:36;6.40;;;2.40;;
26656;SDS011;14279;50.010;8.260;2023-04-24T13:02:04;5.30;;;3.33;;
26656;SDS011;14279;50.010;8.260;2023-04-24T13:04:29;7.33;;;2.53;;
26656;SDS011;14279;50.010;8.260;2023-04-24T13:06:54;5.50;;;2.50;;
26656;SDS011;14279;50.010;8.260;2023-04-24T13:09:19;4.93;;;2.80;;
26656;SDS011;14279;50.010;8.260;2023-04-24T13:11:45;4.80;;;2.50;;
26656;SDS011;14279;50.010;8.260;2023-04-24T13:14:10;10.10;;;3.10;;
26656;SDS011;14279;50.010;8.260;2023-04-24T13:16:35;4.00;;;3.00;;
26656;SDS011;14279;50.010;8.260;2023-04-24T13:19:01;4.70;;;2.27;;
26656;SDS011;14279;50.010;8.260;2023-04-24T13:21:35;5.10;;;3.03;;
26656;SDS011;14279;50.010;8.260;2023-04-24T13:24:00;5.00;;;3.30;;
26656;SDS011;14279;50.010;8.260;2023-04-24T13:26:36;4.20;;;3.23;;
26656;SDS011;14279;50.010;8.260;2023-04-24T13:29:16;4.60;;;3.40;;
26656;SDS011;14279;50.010;8.260;2023-04-24T13:31:42;6.70;;;4.10;;
26656;SDS011;14279;50.010;8.260;2023-04-24T13:34:19;5.37;;;3.60;;
26656;SDS011;14279;50.010;8.260;2023-04-24T13:37:12;4.90;;;3.70;;
26656;SDS011;14279;50.010;8.260;2023-04-24T13:39:44;5.37;;;3.70;;
26656;SDS011;14279;50.010;8.260;2023-04-24T13:42:43;8.33;;;3.70;;
26656;SDS011;14279;50.010;8.260;2023-04-24T13:45:27;7.00;;;2.90;;
26656;SDS011;14279;50.010;8.260;2023-04-24T13:48:03;5.07;;;2.80;;
26656;SDS011;14279;50.010;8.260;2023-04-24T13:50:50;6.80;;;3.60;;
26656;SDS011;14279;50.010;8.260;2023-04-24T14:00:35;9.17;;;3.00;;
26656;SDS011;14279;50.010;8.260;2023-04-24T14:03:31;5.13;;;3.00;;
26656;SDS011;14279;50.010;8.260;2023-04-24T14:12:36;3.90;;;2.47;;
26656;SDS011;14279;50.010;8.260;2023-04-24T14:15:02;3.20;;;2.90;;
26656;SDS011;14279;50.010;8.260;2023-04-24T14:17:41;3.80;;;2.40;;
26656;SDS011;14279;50.010;8.260;2023-04-24T14:23:41;3.27;;;2.70;;
26656;SDS011;14279;50.010;8.260;2023-04-24T14:26:09;5.90;;;2.97;;
26656;SDS011;14279;50.010;8.260;2023-04-24T14:28:49;6.43;;;3.57;;
26656;SDS011;14279;50.010;8.260;2023-04-24T14:31:25;5.77;;;3.17;;
26656;SDS011;14279;50.010;8.260;2023-04-24T14:34:01;4.50;;;3.00;;
26656;SDS011;14279;50.010;8.260;2023-04-24T14:36:29;3.80;;;2.90;;
26656;SDS011;14279;50.010;8.260;2023-04-24T14:38:57;3.83;;;2.53;;
26656;SDS011;14279;50.010;8.260;2023-04-24T14:41:29;8.20;;;3.10;;
26656;SDS011;14279;50.010;8.260;2023-04-24T14:44:05;11.93;;;3.17;;
26656;SDS011;14279;50.010;8.260;2023-04-24T14:46:30;4.37;;;2.83;;
26656;SDS011;14279;50.010;8.260;2023-04-24T14:48:56;4.10;;;2.80;;
26656;SDS011;14279;50.010;8.260;2023-04-24T14:51:40;6.90;;;2.80;;
26656;SDS011;14279;50.010;8.260;2023-04-24T14:54:08;3.00;;;2.43;;
26656;SDS011;14279;50.010;8.260;2023-04-24T14:56:33;3.57;;;2.90;;
26656;SDS011;14279;50.010;8.260;2023-04-24T14:58:59;3.10;;;2.80;;
26656;SDS011;14279;50.010;8.260;2023-04-24T15:01:24;3.93;;;2.93;;
26656;SDS011;14279;50.010;8.260;2023-04-24T15:03:50;8.50;;;2.63;;
26656;SDS011;14279;50.010;8.260;2023-04-24T15:06:17;3.27;;;2.40;;
26656;SDS011;14279;50.010;8.260;2023-04-24T15:08:42;2.60;;;2.40;;
26656;SDS011;14279;50.010;8.260;2023-04-24T15:11:08;4.47;;;2.87;;
26656;SDS011;14279;50.010;8.260;2023-04-24T15:13:34;5.20;;;2.90;;
26656;SDS011;14279;50.010;8.260;2023-04-24T15:16:00;2.83;;;2.43;;
26656;SDS011;14279;50.010;8.260;2023-04-24T15:18:35;7.20;;;2.87;;
26656;SDS011;14279;50.010;8.260;2023-04-24T15:21:10;2.90;;;2.40;;
26656;SDS011;14279;50.010;8.260;2023-04-24T15:23:46;5.40;;;2.93;;
26656;SDS011;14279;50.010;8.260;2023-04-24T15:26:11;9.63;;;3.00;;
26656;SDS011;14279;50.010;8.260;2023-04-24T15:28:38;6.50;;;2.80;;